sensor_id;sensor_type;location;lat;lon;timestamp;temperature;humidity
8253;DHT22;61313;48.396;10.008;2022-09-09T00:03:59;17.60;1.00
8253;DHT22;61313;48.396;10.008;2022-09-09T00:06:36;17.50;1.00
8253;DHT22;61313;48.396;10.008;2022-09-09T00:09:05;17.50;1.00
8253;DHT22;61313;48.396;10.008;2022-09-09T00:12:00;17.50;1.00
8253;DHT22;61313;48.396;10.008;2022-09-09T00:17:11;17.20;1.00
8253;DHT22;61313;48.396;10.008;2022-09-09T00:19:59;16.60;16.20
8253;DHT22;61313;48.396;10.008;2022-09-09T00:22:29;16.10;1.00
8253;DHT22;61313;48.396;10.008;2022-09-09T00:26:22;16.10;1.00
8253;DHT22;61313;48.396;10.008;2022-09-09T00:28:19;16.10;1.00
8253;DHT22;61313;48.396;10.008;2022-09-09T00:30:45;16.20;1.00
8253;DHT22;61313;48.396;10.008;2022-09-09T00:33:16;16.50;1.00
8253;DHT22;61313;48.396;10.008;2022-09-09T00:36:00;16.60;1.00
8253;DHT22;61313;48.396;10.008;2022-09-09T00:38:37;16.70;1.00
8253;DHT22;61313;48.396;10.008;2022-09-09T00:41:25;16.70;1.00
8253;DHT22;61313;48.396;10.008;2022-09-09T00:44:00;16.70;1.00
8253;DHT22;61313;48.396;10.008;2022-09-09T00:52:26;16.90;99.90
8253;DHT22;61313;48.396;10.008;2022-09-09T00:55:16;16.80;1.00
8253;DHT22;61313;48.396;10.008;2022-09-09T00:57:45;16.80;1.00
8253;DHT22;61313;48.396;10.008;2022-09-09T01:06:00;16.70;1.00
8253;DHT22;61313;48.396;10.008;2022-09-09T01:09:12;16.70;1.00
8253;DHT22;61313;48.396;10.008;2022-09-09T01:14:24;16.80;1.00
8253;DHT22;61313;48.396;10.008;2022-09-09T01:16:59;16.80;1.00
8253;DHT22;61313;48.396;10.008;2022-09-09T01:19:55;16.70;1.00
8253;DHT22;61313;48.396;10.008;2022-09-09T01:28:06;16.80;99.90
8253;DHT22;61313;48.396;10.008;2022-09-09T01:30:38;16.80;99.90
8253;DHT22;61313;48.396;10.008;2022-09-09T01:33:04;16.80;99.90
8253;DHT22;61313;48.396;10.008;2022-09-09T01:38:16;16.80;99.90
8253;DHT22;61313;48.396;10.008;2022-09-09T01:40:43;16.50;99.90
8253;DHT22;61313;48.396;10.008;2022-09-09T01:43:09;16.50;99.90
8253;DHT22;61313;48.396;10.008;2022-09-09T01:45:35;16.40;1.00
8253;DHT22;61313;48.396;10.008;2022-09-09T01:48:01;16.00;99.90
8253;DHT22;61313;48.396;10.008;2022-09-09T01:50:28;15.80;1.00
8253;DHT22;61313;48.396;10.008;2022-09-09T01:52:59;15.50;99.90
8253;DHT22;61313;48.396;10.008;2022-09-09T01:55:52;15.60;99.90
8253;DHT22;61313;48.396;10.008;2022-09-09T02:06:55;15.90;99.90
8253;DHT22;61313;48.396;10.008;2022-09-09T02:09:24;16.00;1.00
8253;DHT22;61313;48.396;10.008;2022-09-09T02:11:58;16.00;1.00
8253;DHT22;61313;48.396;10.008;2022-09-09T02:14:35;16.00;1.00
8253;DHT22;61313;48.396;10.008;2022-09-09T02:17:06;16.20;99.90
8253;DHT22;61313;48.396;10.008;2022-09-09T02:19:40;16.20;99.90
8253;DHT22;61313;48.396;10.008;2022-09-09T02:22:07;15.90;1.00
8253;DHT22;61313;48.396;10.008;2022-09-09T02:24:35;15.80;1.00
8253;DHT22;61313;48.396;10.008;2022-09-09T02:27:04;15.90;1.00
8253;DHT22;61313;48.396;10.008;2022-09-09T02:29:39;15.90;1.00
8253;DHT22;61313;48.396;10.008;2022-09-09T02:32:11;15.90;1.00
8253;DHT22;61313;48.396;10.008;2022-09-09T02:34:43;16.00;1.00
8253;DHT22;61313;48.396;10.008;2022-09-09T02:37:10;16.00;1.00
8253;DHT22;61313;48.396;10.008;2022-09-09T02:39:37;16.10;99.90
8253;DHT22;61313;48.396;10.008;2022-09-09T02:42:04;16.20;99.90
8253;DHT22;61313;48.396;10.008;2022-09-09T02:44:30;16.20;77.10
8253;DHT22;61313;48.396;10.008;2022-09-09T02:52:56;16.00;49.60
8253;DHT22;61313;48.396;10.008;2022-09-09T02:55:54;16.20;33.40
8253;DHT22;61313;48.396;10.008;2022-09-09T02:58:22;16.10;1.00
8253;DHT22;61313;48.396;10.008;2022-09-09T03:00:50;16.00;1.00
8253;DHT22;61313;48.396;10.008;2022-09-09T03:03:17;16.00;1.00
8253;DHT22;61313;48.396;10.008;2022-09-09T03:05:44;16.10;1.00
8253;DHT22;61313;48.396;10.008;2022-09-09T03:08:10;16.10;1.00
8253;DHT22;61313;48.396;10.008;2022-09-09T03:10:36;16.10;1.00
8253;DHT22;61313;48.396;10.008;2022-09-09T03:13:03;16.10;1.00
8253;DHT22;61313;48.396;10.008;2022-09-09T03:15:31;16.20;1.00
8253;DHT22;61313;48.396;10.008;2022-09-09T03:17:58;16.20;1.00
8253;DHT22;61313;48.396;10.008;2022-09-09T03:20:26;16.20;1.00
8253;DHT22;61313;48.396;10.008;2022-09-09T03:22:53;16.10;1.00
8253;DHT22;61313;48.396;10.008;2022-09-09T03:25:19;16.20;1.00
8253;DHT22;61313;48.396;10.008;2022-09-09T03:27:45;16.30;1.00
8253;DHT22;61313;48.396;10.008;2022-09-09T03:30:11;16.30;1.00
8253;DHT22;61313;48.396;10.008;2022-09-09T03:32:37;16.10;1.00
8253;DHT22;61313;48.396;10.008;2022-09-09T03:35:03;16.10;1.00
8253;DHT22;61313;48.396;10.008;2022-09-09T03:37:29;16.10;1.00
8253;DHT22;61313;48.396;10.008;2022-09-09T03:39:55;16.10;1.00
8253;DHT22;61313;48.396;10.008;2022-09-09T03:42:21;16.10;1.00
8253;DHT22;61313;48.396;10.008;2022-09-09T03:44:47;15.90;50.70
8253;DHT22;61313;48.396;10.008;2022-09-09T03:47:16;15.90;92.90
8253;DHT22;61313;48.396;10.008;2022-09-09T03:49:42;16.00;80.20
8253;DHT22;61313;48.396;10.008;2022-09-09T03:52:08;16.00;98.40
8253;DHT22;61313;48.396;10.008;2022-09-09T03:54:34;16.10;99.90
8253;DHT22;61313;48.396;10.008;2022-09-09T03:57:01;16.10;99.90
8253;DHT22;61313;48.396;10.008;2022-09-09T03:59:27;16.10;99.90
8253;DHT22;61313;48.396;10.008;2022-09-09T04:01:53;16.10;99.90
8253;DHT22;61313;48.396;10.008;2022-09-09T04:04:19;16.00;99.90
8253;DHT22;61313;48.396;10.008;2022-09-09T04:06:46;16.10;1.00
8253;DHT22;61313;48.396;10.008;2022-09-09T04:09:13;16.10;99.90
8253;DHT22;61313;48.396;10.008;2022-09-09T04:11:39;16.20;1.00
8253;DHT22;61313;48.396;10.008;2022-09-09T04:14:05;16.20;1.00
8253;DHT22;61313;48.396;10.008;2022-09-09T04:16:32;16.10;99.90
8253;DHT22;61313;48.396;10.008;2022-09-09T04:18:58;16.10;1.00
8253;DHT22;61313;48.396;10.008;2022-09-09T04:21:25;16.20;1.00
8253;DHT22;61313;48.396;10.008;2022-09-09T04:23:51;16.10;1.00
8253;DHT22;61313;48.396;10.008;2022-09-09T04:26:17;16.20;99.90
8253;DHT22;61313;48.396;10.008;2022-09-09T04:28:43;16.20;99.90
8253;DHT22;61313;48.396;10.008;2022-09-09T04:31:15;16.20;99.90
8253;DHT22;61313;48.396;10.008;2022-09-09T04:33:43;16.30;1.00
8253;DHT22;61313;48.396;10.008;2022-09-09T04:36:09;16.20;99.90
8253;DHT22;61313;48.396;10.008;2022-09-09T04:38:35;16.30;1.00
8253;DHT22;61313;48.396;10.008;2022-09-09T04:41:00;16.10;1.00
8253;DHT22;61313;48.396;10.008;2022-09-09T04:43:26;15.90;99.90
8253;DHT22;61313;48.396;10.008;2022-09-09T04:45:52;15.90;99.90
8253;DHT22;61313;48.396;10.008;2022-09-09T04:48:18;16.00;1.00
8253;DHT22;61313;48.396;10.008;2022-09-09T04:50:44;16.00;1.00
8253;DHT22;61313;48.396;10.008;2022-09-09T04:53:18;16.00;99.90
8253;DHT22;61313;48.396;10.008;2022-09-09T04:55:44;16.10;99.90
8253;DHT22;61313;48.396;10.008;2022-09-09T04:58:09;16.10;99.90
8253;DHT22;61313;48.396;10.008;2022-09-09T05:00:35;16.20;1.00
8253;DHT22;61313;48.396;10.008;2022-09-09T05:03:05;16.20;99.90
8253;DHT22;61313;48.396;10.008;2022-09-09T05:05:32;16.20;1.00
8253;DHT22;61313;48.396;10.008;2022-09-09T05:08:06;16.10;99.90
8253;DHT22;61313;48.396;10.008;2022-09-09T05:10:33;16.10;1.00
8253;DHT22;61313;48.396;10.008;2022-09-09T05:12:58;16.10;1.00
8253;DHT22;61313;48.396;10.008;2022-09-09T05:15:24;16.20;99.90
8253;DHT22;61313;48.396;10.008;2022-09-09T05:17:50;16.10;99.90
8253;DHT22;61313;48.396;10.008;2022-09-09T05:20:17;16.10;1.00
8253;DHT22;61313;48.396;10.008;2022-09-09T05:22:44;16.00;1.00
8253;DHT22;61313;48.396;10.008;2022-09-09T05:25:09;15.90;99.90
8253;DHT22;61313;48.396;10.008;2022-09-09T05:27:35;15.90;1.00
8253;DHT22;61313;48.396;10.008;2022-09-09T05:30:01;16.00;99.90
8253;DHT22;61313;48.396;10.008;2022-09-09T05:32:26;16.00;1.00
8253;DHT22;61313;48.396;10.008;2022-09-09T05:34:53;16.10;99.90
8253;DHT22;61313;48.396;10.008;2022-09-09T05:37:19;16.10;99.90
8253;DHT22;61313;48.396;10.008;2022-09-09T05:39:44;16.20;1.00
8253;DHT22;61313;48.396;10.008;2022-09-09T05:42:10;16.10;99.90
8253;DHT22;61313;48.396;10.008;2022-09-09T05:44:36;16.00;99.90
8253;DHT22;61313;48.396;10.008;2022-09-09T05:47:02;15.90;1.00
8253;DHT22;61313;48.396;10.008;2022-09-09T05:49:28;15.90;1.00
8253;DHT22;61313;48.396;10.008;2022-09-09T05:51:54;15.90;1.00
8253;DHT22;61313;48.396;10.008;2022-09-09T05:54:20;15.90;1.00
8253;DHT22;61313;48.396;10.008;2022-09-09T05:56:45;15.90;1.00
8253;DHT22;61313;48.396;10.008;2022-09-09T05:59:11;15.90;1.00
8253;DHT22;61313;48.396;10.008;2022-09-09T06:01:38;15.80;99.90
8253;DHT22;61313;48.396;10.008;2022-09-09T06:04:07;15.80;1.00
8253;DHT22;61313;48.396;10.008;2022-09-09T06:06:35;16.00;99.90
8253;DHT22;61313;48.396;10.008;2022-09-09T06:09:03;16.10;99.90
8253;DHT22;61313;48.396;10.008;2022-09-09T06:11:34;16.10;99.90
8253;DHT22;61313;48.396;10.008;2022-09-09T06:14:02;16.20;99.90
8253;DHT22;61313;48.396;10.008;2022-09-09T06:16:29;16.20;1.00
8253;DHT22;61313;48.396;10.008;2022-09-09T06:18:56;16.30;1.00
8253;DHT22;61313;48.396;10.008;2022-09-09T06:21:23;16.40;99.90
8253;DHT22;61313;48.396;10.008;2022-09-09T06:23:49;16.40;99.90
8253;DHT22;61313;48.396;10.008;2022-09-09T06:26:24;16.40;99.90
8253;DHT22;61313;48.396;10.008;2022-09-09T06:28:52;16.30;1.00
8253;DHT22;61313;48.396;10.008;2022-09-09T06:31:23;16.30;1.00
8253;DHT22;61313;48.396;10.008;2022-09-09T06:33:50;16.30;99.90
8253;DHT22;61313;48.396;10.008;2022-09-09T06:36:19;16.40;99.90
8253;DHT22;61313;48.396;10.008;2022-09-09T06:38:45;16.50;1.00
8253;DHT22;61313;48.396;10.008;2022-09-09T06:41:13;16.50;99.90
8253;DHT22;61313;48.396;10.008;2022-09-09T06:43:40;16.50;1.00
8253;DHT22;61313;48.396;10.008;2022-09-09T06:48:43;16.60;99.90
8253;DHT22;61313;48.396;10.008;2022-09-09T06:51:23;16.70;1.00
8253;DHT22;61313;48.396;10.008;2022-09-09T06:53:58;16.80;1.00
8253;DHT22;61313;48.396;10.008;2022-09-09T06:58:59;16.90;99.90
8253;DHT22;61313;48.396;10.008;2022-09-09T07:01:28;17.20;51.20
8253;DHT22;61313;48.396;10.008;2022-09-09T07:03:56;17.90;1.00
8253;DHT22;61313;48.396;10.008;2022-09-09T07:06:29;18.90;99.90
8253;DHT22;61313;48.396;10.008;2022-09-09T07:09:02;19.90;1.00
8253;DHT22;61313;48.396;10.008;2022-09-09T07:11:40;20.60;8.80
8253;DHT22;61313;48.396;10.008;2022-09-09T07:14:07;20.70;1.00
8253;DHT22;61313;48.396;10.008;2022-09-09T07:16:33;21.00;1.00
8253;DHT22;61313;48.396;10.008;2022-09-09T07:19:03;21.30;1.00
8253;DHT22;61313;48.396;10.008;2022-09-09T07:21:30;21.60;1.00
8253;DHT22;61313;48.396;10.008;2022-09-09T07:23:57;22.00;1.00
8253;DHT22;61313;48.396;10.008;2022-09-09T07:26:25;22.30;1.00
8253;DHT22;61313;48.396;10.008;2022-09-09T07:28:51;22.70;1.00
8253;DHT22;61313;48.396;10.008;2022-09-09T07:31:19;22.60;1.00
8253;DHT22;61313;48.396;10.008;2022-09-09T07:33:46;22.10;1.00
8253;DHT22;61313;48.396;10.008;2022-09-09T07:36:15;21.60;1.00
8253;DHT22;61313;48.396;10.008;2022-09-09T07:38:43;21.10;1.00
8253;DHT22;61313;48.396;10.008;2022-09-09T07:41:15;20.70;1.00
8253;DHT22;61313;48.396;10.008;2022-09-09T07:43:42;20.80;1.00
8253;DHT22;61313;48.396;10.008;2022-09-09T07:46:09;20.90;1.00
8253;DHT22;61313;48.396;10.008;2022-09-09T07:48:36;20.80;1.00
8253;DHT22;61313;48.396;10.008;2022-09-09T07:51:14;21.10;1.00
8253;DHT22;61313;48.396;10.008;2022-09-09T07:53:45;21.10;1.00
8253;DHT22;61313;48.396;10.008;2022-09-09T07:56:13;21.20;1.00
8253;DHT22;61313;48.396;10.008;2022-09-09T07:58:40;21.40;1.00
8253;DHT22;61313;48.396;10.008;2022-09-09T08:01:18;21.40;1.00
8253;DHT22;61313;48.396;10.008;2022-09-09T08:03:45;21.10;1.00
8253;DHT22;61313;48.396;10.008;2022-09-09T08:06:12;21.30;1.00
8253;DHT22;61313;48.396;10.008;2022-09-09T08:08:39;21.50;1.00
8253;DHT22;61313;48.396;10.008;2022-09-09T08:11:12;21.50;1.00
8253;DHT22;61313;48.396;10.008;2022-09-09T08:13:40;21.70;1.00
8253;DHT22;61313;48.396;10.008;2022-09-09T08:16:27;21.70;1.00
8253;DHT22;61313;48.396;10.008;2022-09-09T08:18:53;21.50;1.00
8253;DHT22;61313;48.396;10.008;2022-09-09T08:21:25;21.70;1.00
8253;DHT22;61313;48.396;10.008;2022-09-09T08:23:54;21.70;1.00
8253;DHT22;61313;48.396;10.008;2022-09-09T08:26:26;21.50;1.00
8253;DHT22;61313;48.396;10.008;2022-09-09T08:28:55;22.20;1.00
8253;DHT22;61313;48.396;10.008;2022-09-09T08:34:10;23.20;1.00
8253;DHT22;61313;48.396;10.008;2022-09-09T08:36:39;22.90;1.00
8253;DHT22;61313;48.396;10.008;2022-09-09T08:39:06;22.60;1.00
8253;DHT22;61313;48.396;10.008;2022-09-09T08:47:18;22.70;1.00
8253;DHT22;61313;48.396;10.008;2022-09-09T08:55:12;23.40;99.90
8253;DHT22;61313;48.396;10.008;2022-09-09T08:57:40;23.40;99.90
8253;DHT22;61313;48.396;10.008;2022-09-09T09:00:10;23.70;99.90
8253;DHT22;61313;48.396;10.008;2022-09-09T09:05:19;23.80;99.90
8253;DHT22;61313;48.396;10.008;2022-09-09T09:08:08;23.80;99.90
8253;DHT22;61313;48.396;10.008;2022-09-09T09:10:50;23.90;99.90
8253;DHT22;61313;48.396;10.008;2022-09-09T09:16:19;24.20;99.90
8253;DHT22;61313;48.396;10.008;2022-09-09T09:18:47;24.10;99.90
8253;DHT22;61313;48.396;10.008;2022-09-09T09:22:02;23.60;99.90
8253;DHT22;61313;48.396;10.008;2022-09-09T09:24:19;23.90;99.90
8253;DHT22;61313;48.396;10.008;2022-09-09T09:26:46;24.20;99.90
8253;DHT22;61313;48.396;10.008;2022-09-09T09:29:17;24.10;99.90
8253;DHT22;61313;48.396;10.008;2022-09-09T09:31:51;24.00;99.90
8253;DHT22;61313;48.396;10.008;2022-09-09T09:34:18;23.80;99.90
8253;DHT22;61313;48.396;10.008;2022-09-09T09:36:46;23.60;99.90
8253;DHT22;61313;48.396;10.008;2022-09-09T09:39:27;23.60;99.90
8253;DHT22;61313;48.396;10.008;2022-09-09T09:41:53;23.60;99.90
8253;DHT22;61313;48.396;10.008;2022-09-09T09:44:31;23.70;99.90
8253;DHT22;61313;48.396;10.008;2022-09-09T09:49:32;24.30;99.90
8253;DHT22;61313;48.396;10.008;2022-09-09T09:52:03;24.50;99.90
8253;DHT22;61313;48.396;10.008;2022-09-09T09:54:34;24.70;99.90
8253;DHT22;61313;48.396;10.008;2022-09-09T09:59:36;24.50;99.90
8253;DHT22;61313;48.396;10.008;2022-09-09T10:04:40;24.70;99.90
8253;DHT22;61313;48.396;10.008;2022-09-09T10:07:33;24.70;99.90
8253;DHT22;61313;48.396;10.008;2022-09-09T10:09:59;24.70;99.90
8253;DHT22;61313;48.396;10.008;2022-09-09T10:12:52;24.70;99.90
8253;DHT22;61313;48.396;10.008;2022-09-09T10:18:35;24.80;99.90
8253;DHT22;61313;48.396;10.008;2022-09-09T10:24:07;24.60;99.90
8253;DHT22;61313;48.396;10.008;2022-09-09T10:29:22;24.70;99.90
8253;DHT22;61313;48.396;10.008;2022-09-09T10:37:41;24.60;99.90
8253;DHT22;61313;48.396;10.008;2022-09-09T10:42:38;24.10;99.90
8253;DHT22;61313;48.396;10.008;2022-09-09T10:47:55;23.90;99.90
8253;DHT22;61313;48.396;10.008;2022-09-09T10:55:53;23.80;99.90
8253;DHT22;61313;48.396;10.008;2022-09-09T10:58:38;23.80;99.90
8253;DHT22;61313;48.396;10.008;2022-09-09T11:01:15;24.10;99.90
8253;DHT22;61313;48.396;10.008;2022-09-09T11:03:42;24.30;99.90
8253;DHT22;61313;48.396;10.008;2022-09-09T11:06:18;24.40;99.90
8253;DHT22;61313;48.396;10.008;2022-09-09T11:08:45;24.40;99.90
8253;DHT22;61313;48.396;10.008;2022-09-09T11:16:24;24.40;99.90
8253;DHT22;61313;48.396;10.008;2022-09-09T11:18:57;24.40;99.90
8253;DHT22;61313;48.396;10.008;2022-09-09T11:21:32;24.50;99.90
8253;DHT22;61313;48.396;10.008;2022-09-09T11:24:26;24.50;99.90
8253;DHT22;61313;48.396;10.008;2022-09-09T11:35:38;24.70;99.90
8253;DHT22;61313;48.396;10.008;2022-09-09T11:38:26;24.80;99.90
8253;DHT22;61313;48.396;10.008;2022-09-09T11:41:04;24.80;99.90
8253;DHT22;61313;48.396;10.008;2022-09-09T11:43:52;24.90;99.90
8253;DHT22;61313;48.396;10.008;2022-09-09T11:46:21;24.50;99.90
8253;DHT22;61313;48.396;10.008;2022-09-09T11:49:03;24.50;99.90
8253;DHT22;61313;48.396;10.008;2022-09-09T11:51:31;24.50;99.90
8253;DHT22;61313;48.396;10.008;2022-09-09T11:54:02;24.30;99.90
8253;DHT22;61313;48.396;10.008;2022-09-09T11:56:32;24.10;99.90
8253;DHT22;61313;48.396;10.008;2022-09-09T12:01:36;23.90;99.90
8253;DHT22;61313;48.396;10.008;2022-09-09T12:06:58;24.30;99.90
8253;DHT22;61313;48.396;10.008;2022-09-09T12:09:47;24.40;99.90
8253;DHT22;61313;48.396;10.008;2022-09-09T12:19:41;24.40;99.90
8253;DHT22;61313;48.396;10.008;2022-09-09T12:22:35;24.50;99.90
8253;DHT22;61313;48.396;10.008;2022-09-09T12:28:15;24.40;99.90
8253;DHT22;61313;48.396;10.008;2022-09-09T12:30:55;24.30;99.90
8253;DHT22;61313;48.396;10.008;2022-09-09T12:33:24;24.30;99.90
8253;DHT22;61313;48.396;10.008;2022-09-09T12:35:59;24.20;99.90
8253;DHT22;61313;48.396;10.008;2022-09-09T12:38:32;24.20;99.90
8253;DHT22;61313;48.396;10.008;2022-09-09T12:40:59;24.00;99.90
8253;DHT22;61313;48.396;10.008;2022-09-09T12:43:27;24.10;99.90
8253;DHT22;61313;48.396;10.008;2022-09-09T12:46:07;24.00;99.90
8253;DHT22;61313;48.396;10.008;2022-09-09T12:48:37;24.20;99.90
8253;DHT22;61313;48.396;10.008;2022-09-09T12:51:14;24.20;99.90
8253;DHT22;61313;48.396;10.008;2022-09-09T12:53:41;24.30;99.90
8253;DHT22;61313;48.396;10.008;2022-09-09T12:56:09;24.10;99.90
8253;DHT22;61313;48.396;10.008;2022-09-09T12:58:46;24.10;99.90
8253;DHT22;61313;48.396;10.008;2022-09-09T13:01:22;24.00;99.90
8253;DHT22;61313;48.396;10.008;2022-09-09T13:03:48;23.90;99.90
8253;DHT22;61313;48.396;10.008;2022-09-09T13:06:24;23.90;99.90
8253;DHT22;61313;48.396;10.008;2022-09-09T13:08:51;23.80;99.90
8253;DHT22;61313;48.396;10.008;2022-09-09T13:11:21;23.70;99.90
8253;DHT22;61313;48.396;10.008;2022-09-09T13:13:55;23.70;99.90
8253;DHT22;61313;48.396;10.008;2022-09-09T13:16:28;23.50;99.90
8253;DHT22;61313;48.396;10.008;2022-09-09T13:18:58;23.60;99.90
8253;DHT22;61313;48.396;10.008;2022-09-09T13:21:38;23.50;99.90
8253;DHT22;61313;48.396;10.008;2022-09-09T13:24:06;23.50;99.90
8253;DHT22;61313;48.396;10.008;2022-09-09T13:26:33;23.50;99.90
8253;DHT22;61313;48.396;10.008;2022-09-09T13:29:29;23.60;99.90
8253;DHT22;61313;48.396;10.008;2022-09-09T13:32:15;23.70;99.90
8253;DHT22;61313;48.396;10.008;2022-09-09T13:34:51;23.80;99.90
8253;DHT22;61313;48.396;10.008;2022-09-09T13:39:55;23.60;99.90
8253;DHT22;61313;48.396;10.008;2022-09-09T13:42:27;23.70;99.90
8253;DHT22;61313;48.396;10.008;2022-09-09T13:44:53;23.90;99.90
8253;DHT22;61313;48.396;10.008;2022-09-09T13:47:26;23.70;99.90
8253;DHT22;61313;48.396;10.008;2022-09-09T13:49:53;23.60;99.90
8253;DHT22;61313;48.396;10.008;2022-09-09T13:52:19;23.60;99.90
8253;DHT22;61313;48.396;10.008;2022-09-09T13:54:49;23.60;99.90
8253;DHT22;61313;48.396;10.008;2022-09-09T13:57:24;23.60;99.90
8253;DHT22;61313;48.396;10.008;2022-09-09T13:59:51;23.80;99.90
8253;DHT22;61313;48.396;10.008;2022-09-09T14:02:17;23.70;99.90
8253;DHT22;61313;48.396;10.008;2022-09-09T14:04:44;23.70;99.90
8253;DHT22;61313;48.396;10.008;2022-09-09T14:07:17;23.80;99.90
8253;DHT22;61313;48.396;10.008;2022-09-09T14:09:43;23.80;99.90
8253;DHT22;61313;48.396;10.008;2022-09-09T14:12:12;23.90;99.90
8253;DHT22;61313;48.396;10.008;2022-09-09T14:14:39;23.80;99.90
8253;DHT22;61313;48.396;10.008;2022-09-09T14:17:05;23.70;99.90
8253;DHT22;61313;48.396;10.008;2022-09-09T14:19:31;23.80;99.90
8253;DHT22;61313;48.396;10.008;2022-09-09T14:21:57;23.80;99.90
8253;DHT22;61313;48.396;10.008;2022-09-09T14:24:23;23.70;99.90
8253;DHT22;61313;48.396;10.008;2022-09-09T14:26:49;23.70;99.90
8253;DHT22;61313;48.396;10.008;2022-09-09T14:29:14;23.70;99.90
8253;DHT22;61313;48.396;10.008;2022-09-09T14:31:40;23.80;99.90
8253;DHT22;61313;48.396;10.008;2022-09-09T14:34:06;23.80;99.90
8253;DHT22;61313;48.396;10.008;2022-09-09T14:36:31;23.80;99.90
8253;DHT22;61313;48.396;10.008;2022-09-09T14:38:57;23.70;99.90
8253;DHT22;61313;48.396;10.008;2022-09-09T14:41:24;23.50;99.90
8253;DHT22;61313;48.396;10.008;2022-09-09T14:43:50;23.50;99.90
8253;DHT22;61313;48.396;10.008;2022-09-09T14:46:18;23.50;99.90
8253;DHT22;61313;48.396;10.008;2022-09-09T14:48:45;23.40;99.90
8253;DHT22;61313;48.396;10.008;2022-09-09T14:51:23;23.40;99.90
8253;DHT22;61313;48.396;10.008;2022-09-09T14:53:53;23.60;99.90
8253;DHT22;61313;48.396;10.008;2022-09-09T14:56:20;23.70;99.90
8253;DHT22;61313;48.396;10.008;2022-09-09T14:58:47;23.80;99.90
8253;DHT22;61313;48.396;10.008;2022-09-09T15:01:18;23.80;99.90
8253;DHT22;61313;48.396;10.008;2022-09-09T15:03:53;23.90;99.90
8253;DHT22;61313;48.396;10.008;2022-09-09T15:06:20;23.80;99.90
8253;DHT22;61313;48.396;10.008;2022-09-09T15:08:47;23.80;99.90
8253;DHT22;61313;48.396;10.008;2022-09-09T15:11:14;23.80;99.90
8253;DHT22;61313;48.396;10.008;2022-09-09T15:13:41;23.80;99.90
8253;DHT22;61313;48.396;10.008;2022-09-09T15:16:13;23.70;99.90
8253;DHT22;61313;48.396;10.008;2022-09-09T15:18:39;23.70;99.90
8253;DHT22;61313;48.396;10.008;2022-09-09T15:21:16;23.90;99.90
8253;DHT22;61313;48.396;10.008;2022-09-09T15:23:44;23.90;99.90
8253;DHT22;61313;48.396;10.008;2022-09-09T15:26:11;23.90;99.90
8253;DHT22;61313;48.396;10.008;2022-09-09T15:28:38;24.00;99.90
8253;DHT22;61313;48.396;10.008;2022-09-09T15:33:35;24.10;99.90
8253;DHT22;61313;48.396;10.008;2022-09-09T15:38:42;24.00;99.90
8253;DHT22;61313;48.396;10.008;2022-09-09T15:41:10;23.90;99.90
8253;DHT22;61313;48.396;10.008;2022-09-09T15:43:35;23.90;99.90
8253;DHT22;61313;48.396;10.008;2022-09-09T15:46:43;24.00;99.90
8253;DHT22;61313;48.396;10.008;2022-09-09T15:49:07;23.90;99.90
8253;DHT22;61313;48.396;10.008;2022-09-09T15:51:35;23.70;99.90
8253;DHT22;61313;48.396;10.008;2022-09-09T15:54:01;23.80;99.90
8253;DHT22;61313;48.396;10.008;2022-09-09T15:56:28;23.90;99.90
8253;DHT22;61313;48.396;10.008;2022-09-09T15:58:56;23.90;99.90
8253;DHT22;61313;48.396;10.008;2022-09-09T16:01:23;23.90;99.90
8253;DHT22;61313;48.396;10.008;2022-09-09T16:03:49;23.90;99.90
8253;DHT22;61313;48.396;10.008;2022-09-09T16:06:21;23.80;99.90
8253;DHT22;61313;48.396;10.008;2022-09-09T16:08:49;23.80;99.90
8253;DHT22;61313;48.396;10.008;2022-09-09T16:11:21;23.70;99.90
8253;DHT22;61313;48.396;10.008;2022-09-09T16:13:48;23.60;99.90
8253;DHT22;61313;48.396;10.008;2022-09-09T16:16:15;23.60;99.90
8253;DHT22;61313;48.396;10.008;2022-09-09T16:18:44;23.60;99.90
8253;DHT22;61313;48.396;10.008;2022-09-09T16:21:19;23.50;99.90
8253;DHT22;61313;48.396;10.008;2022-09-09T16:23:46;23.50;99.90
8253;DHT22;61313;48.396;10.008;2022-09-09T16:26:13;23.50;99.90
8253;DHT22;61313;48.396;10.008;2022-09-09T16:28:39;23.40;99.90
8253;DHT22;61313;48.396;10.008;2022-09-09T16:31:07;23.40;99.90
8253;DHT22;61313;48.396;10.008;2022-09-09T16:33:33;23.30;99.90
8253;DHT22;61313;48.396;10.008;2022-09-09T16:36:12;23.30;99.90
8253;DHT22;61313;48.396;10.008;2022-09-09T16:38:38;23.20;99.90
8253;DHT22;61313;48.396;10.008;2022-09-09T16:41:05;23.00;99.90
8253;DHT22;61313;48.396;10.008;2022-09-09T16:43:35;22.80;99.90
8253;DHT22;61313;48.396;10.008;2022-09-09T16:46:15;22.80;99.90
8253;DHT22;61313;48.396;10.008;2022-09-09T16:48:42;22.70;99.90
8253;DHT22;61313;48.396;10.008;2022-09-09T16:51:13;22.70;99.90
8253;DHT22;61313;48.396;10.008;2022-09-09T16:53:40;22.60;99.90
8253;DHT22;61313;48.396;10.008;2022-09-09T16:56:09;22.60;99.90
8253;DHT22;61313;48.396;10.008;2022-09-09T16:58:35;22.60;99.90
8253;DHT22;61313;48.396;10.008;2022-09-09T17:01:02;22.50;99.90
8253;DHT22;61313;48.396;10.008;2022-09-09T17:03:28;22.40;99.90
8253;DHT22;61313;48.396;10.008;2022-09-09T17:05:54;22.30;99.90
8253;DHT22;61313;48.396;10.008;2022-09-09T17:08:20;22.20;99.90
8253;DHT22;61313;48.396;10.008;2022-09-09T17:10:46;22.30;99.90
8253;DHT22;61313;48.396;10.008;2022-09-09T17:13:12;22.20;99.90
8253;DHT22;61313;48.396;10.008;2022-09-09T17:15:42;22.30;99.90
8253;DHT22;61313;48.396;10.008;2022-09-09T17:18:09;22.30;99.90
8253;DHT22;61313;48.396;10.008;2022-09-09T17:20:40;22.20;99.90
8253;DHT22;61313;48.396;10.008;2022-09-09T17:23:08;22.10;99.90
8253;DHT22;61313;48.396;10.008;2022-09-09T17:25:34;21.90;99.90
8253;DHT22;61313;48.396;10.008;2022-09-09T17:28:02;21.70;99.90
8253;DHT22;61313;48.396;10.008;2022-09-09T17:30:33;21.60;99.90
8253;DHT22;61313;48.396;10.008;2022-09-09T17:32:59;21.50;99.90
8253;DHT22;61313;48.396;10.008;2022-09-09T17:35:25;21.50;99.90
8253;DHT22;61313;48.396;10.008;2022-09-09T17:37:53;21.30;99.90
8253;DHT22;61313;48.396;10.008;2022-09-09T17:40:20;21.30;99.90
8253;DHT22;61313;48.396;10.008;2022-09-09T17:42:46;21.20;99.90
8253;DHT22;61313;48.396;10.008;2022-09-09T17:45:13;21.10;99.90
8253;DHT22;61313;48.396;10.008;2022-09-09T17:47:39;20.90;99.90
8253;DHT22;61313;48.396;10.008;2022-09-09T17:50:05;20.80;99.90
8253;DHT22;61313;48.396;10.008;2022-09-09T17:52:32;20.80;99.90
8253;DHT22;61313;48.396;10.008;2022-09-09T17:54:57;20.70;99.90
8253;DHT22;61313;48.396;10.008;2022-09-09T17:57:23;20.80;99.90
8253;DHT22;61313;48.396;10.008;2022-09-09T17:59:50;20.90;99.90
8253;DHT22;61313;48.396;10.008;2022-09-09T18:02:15;21.30;99.90
8253;DHT22;61313;48.396;10.008;2022-09-09T18:04:41;21.50;99.90
8253;DHT22;61313;48.396;10.008;2022-09-09T18:07:07;21.40;99.90
8253;DHT22;61313;48.396;10.008;2022-09-09T18:09:33;21.00;99.90
8253;DHT22;61313;48.396;10.008;2022-09-09T18:11:59;20.80;99.90